createdAt,value
2023-02-22T00:02:45.295Z,69.13
2023-02-22T00:05:53.877Z,71.40
2023-02-22T00:09:00.166Z,69.80
2023-02-22T00:12:05.447Z,69.25
2023-02-22T00:15:13.542Z,70.28
2023-02-22T00:18:19.887Z,70.10
2023-02-22T00:21:25.619Z,75.97
2023-02-22T00:24:33.054Z,70.53
2023-02-22T00:27:38.587Z,71.07
2023-02-22T00:30:44.188Z,71.85
2023-02-22T00:33:50.139Z,74.60
2023-02-22T00:36:55.755Z,73.88
2023-02-22T00:40:00.922Z,73.78
2023-02-22T00:43:08.013Z,72.55
2023-02-22T00:46:14.209Z,71.90
2023-02-22T00:49:19.900Z,71.53
2023-02-22T00:52:28.553Z,71.75
2023-02-22T00:55:36.608Z,74.97
2023-02-22T00:58:41.941Z,73.03
2023-02-22T01:01:47.844Z,71.18
2023-02-22T01:04:53.079Z,72.28
2023-02-22T01:08:00.585Z,75.45
2023-02-22T01:11:06.121Z,71.85
2023-02-22T01:14:11.921Z,72.10
2023-02-22T01:17:17.061Z,73.72
2023-02-22T01:20:23.693Z,69.45
2023-02-22T01:23:28.969Z,71.53
2023-02-22T01:26:36.307Z,73.00
2023-02-22T01:29:41.576Z,74.35
2023-02-22T01:32:47.273Z,72.65
2023-02-22T01:35:53.196Z,73.80
2023-02-22T01:38:58.471Z,71.57
2023-02-22T01:42:05.762Z,71.35
2023-02-22T01:45:53.406Z,73.57
2023-02-22T01:49:10.643Z,72.47
2023-02-22T01:52:21.231Z,71.22
2023-02-22T01:55:27.167Z,73.20
2023-02-22T01:58:36.134Z,71.95
2023-02-22T02:01:46.138Z,73.75
2023-02-22T02:04:54.536Z,69.43
2023-02-22T02:08:05.948Z,70.07
2023-02-22T02:11:11.416Z,71.68
2023-02-22T02:14:16.957Z,71.65
2023-02-22T02:17:23.914Z,69.32
2023-02-22T02:20:49.580Z,70.63
2023-02-22T02:24:05.111Z,70.53
2023-02-22T02:27:12.180Z,65.18
2023-02-22T02:30:32.866Z,66.45
2023-02-22T02:33:49.959Z,68.28
2023-02-22T02:37:21.185Z,68.68
2023-02-22T02:40:52.367Z,66.13
2023-02-22T02:44:11.728Z,70.25
2023-02-22T02:47:35.961Z,68.93
2023-02-22T02:50:47.175Z,68.10
2023-02-22T02:53:53.579Z,71.30
2023-02-22T02:56:58.866Z,68.72
2023-02-22T03:00:22.918Z,68.72
2023-02-22T03:03:56.046Z,69.35
2023-02-22T03:07:03.617Z,68.03
2023-02-22T03:10:33.468Z,66.45
2023-02-22T03:13:51.080Z,66.22
2023-02-22T03:17:12.620Z,68.57
2023-02-22T03:21:00.806Z,72.35
2023-02-22T03:24:36.496Z,65.70
2023-02-22T03:27:47.765Z,66.35
2023-02-22T03:31:06.019Z,65.20
2023-02-22T03:34:19.576Z,66.63
2023-02-22T03:37:34.257Z,67.05
2023-02-22T03:40:48.999Z,66.78
2023-02-22T03:44:17.730Z,67.00
2023-02-22T03:47:33.955Z,67.00
2023-02-22T03:50:39.439Z,68.60
2023-02-22T03:53:48.246Z,71.72
2023-02-22T03:57:01.015Z,71.82
2023-02-22T04:00:12.314Z,67.18
2023-02-22T04:03:24.192Z,71.13
2023-02-22T04:06:31.392Z,68.63
2023-02-22T04:09:38.877Z,71.05
2023-02-22T04:12:44.585Z,71.47
2023-02-22T04:15:50.130Z,69.47
2023-02-22T04:18:57.062Z,71.32
2023-02-22T04:22:03.009Z,71.93
2023-02-22T04:25:13.141Z,67.35
2023-02-22T04:28:19.456Z,67.63
2023-02-22T04:31:34.039Z,74.75
2023-02-22T04:34:39.587Z,72.18
2023-02-22T04:37:45.107Z,70.60
2023-02-22T04:40:50.559Z,68.70
2023-02-22T04:43:55.879Z,70.95
2023-02-22T04:47:03.945Z,73.25
2023-02-22T04:50:11.371Z,71.82
2023-02-22T04:53:17.431Z,72.93
2023-02-22T04:56:23.643Z,68.47
2023-02-22T04:59:29.741Z,70.53
2023-02-22T05:02:40.260Z,69.55
2023-02-22T05:05:45.740Z,72.00
2023-02-22T05:08:51.223Z,70.15
2023-02-22T05:11:56.392Z,68.90
2023-02-22T05:15:01.690Z,69.43
2023-02-22T05:18:06.733Z,68.68
2023-02-22T05:21:12.970Z,68.03
2023-02-22T05:24:18.390Z,69.72
2023-02-22T05:27:23.638Z,70.93
2023-02-22T05:30:33.226Z,69.53
2023-02-22T05:33:40.004Z,73.90
2023-02-22T05:36:47.372Z,70.45
2023-02-22T05:39:53.532Z,67.82
2023-02-22T05:43:02.460Z,69.40
2023-02-22T05:46:08.375Z,69.30
2023-02-22T05:49:14.108Z,73.38
2023-02-22T05:52:19.109Z,70.18
2023-02-22T05:55:24.883Z,68.07
2023-02-22T05:58:30.096Z,70.28
2023-02-22T06:01:35.251Z,74.72
2023-02-22T06:04:40.609Z,72.15
2023-02-22T06:07:46.498Z,72.95
2023-02-22T06:10:51.868Z,72.50
2023-02-22T06:13:57.108Z,73.13
2023-02-22T06:17:03.159Z,75.78
2023-02-22T06:20:14.437Z,71.93
2023-02-22T06:23:19.954Z,69.75
2023-02-22T06:26:25.162Z,73.20
2023-02-22T06:29:30.612Z,76.05
2023-02-22T06:32:35.903Z,76.60
2023-02-22T06:35:41.687Z,73.90
2023-02-22T06:38:47.346Z,70.25
2023-02-22T06:41:55.432Z,72.72
2023-02-22T06:45:01.257Z,73.95
2023-02-22T06:48:06.571Z,69.75
2023-02-22T06:51:12.036Z,69.13
2023-02-22T06:54:17.250Z,70.38
2023-02-22T06:57:22.736Z,72.03
2023-02-22T07:00:30.236Z,72.40
2023-02-22T07:03:36.197Z,70.70
2023-02-22T07:06:47.185Z,72.03
2023-02-22T07:09:52.463Z,71.78
2023-02-22T07:12:58.410Z,70.60
2023-02-22T07:16:03.959Z,74.25
2023-02-22T07:19:09.404Z,73.22
2023-02-22T07:22:15.377Z,70.10
2023-02-22T07:25:21.474Z,72.05
2023-02-22T07:28:27.185Z,76.07
2023-02-22T07:31:39.603Z,74.03
2023-02-22T07:34:45.483Z,75.03
2023-02-22T07:37:51.088Z,74.28
2023-02-22T07:40:58.322Z,74.28
2023-02-22T07:44:04.181Z,72.88
2023-02-22T07:47:12.894Z,70.45
2023-02-22T07:50:20.199Z,73.38
2023-02-22T07:53:30.793Z,75.03
2023-02-22T07:56:36.192Z,75.03
2023-02-22T07:59:41.568Z,72.80
2023-02-22T08:02:47.343Z,76.13
2023-02-22T08:05:56.935Z,73.82
2023-02-22T08:09:02.756Z,73.75
2023-02-22T08:12:08.692Z,74.38
2023-02-22T08:15:26.266Z,75.25
2023-02-22T08:18:31.672Z,74.72
2023-02-22T08:21:37.234Z,74.65
2023-02-22T08:24:43.079Z,72.68
2023-02-22T08:27:48.993Z,75.40
2023-02-22T08:30:54.327Z,74.22
2023-02-22T08:34:01.385Z,72.95
2023-02-22T08:37:06.770Z,74.90
2023-02-22T08:40:15.048Z,72.45
2023-02-22T08:43:21.751Z,72.03
2023-02-22T08:46:27.054Z,73.72
2023-02-22T08:49:32.528Z,70.90
2023-02-22T08:52:37.979Z,74.20
2023-02-22T08:55:44.108Z,71.60
2023-02-22T08:58:49.637Z,71.97
2023-02-22T09:01:55.743Z,69.30
2023-02-22T09:05:01.167Z,72.63
2023-02-22T09:08:06.749Z,72.78
2023-02-22T09:11:12.654Z,73.35
2023-02-22T09:14:18.282Z,71.07
2023-02-22T09:17:23.660Z,70.88
2023-02-22T09:20:29.647Z,68.68
2023-02-22T09:23:35.457Z,69.70
2023-02-22T09:26:47.487Z,66.68
2023-02-22T09:29:53.312Z,74.15
2023-02-22T09:33:02.008Z,67.80
2023-02-22T09:36:07.973Z,68.95
2023-02-22T09:39:15.631Z,66.28
2023-02-22T09:42:33.866Z,66.40
2023-02-22T09:46:06.069Z,62.03
2023-02-22T09:52:31.720Z,60.80
2023-02-22T09:55:42.595Z,60.55
2023-02-22T09:58:55.569Z,60.53
2023-02-22T10:02:20.310Z,62.83
2023-02-22T10:05:38.040Z,60.70
2023-02-22T10:08:45.280Z,58.08
2023-02-22T10:11:56.094Z,63.05
2023-02-22T10:15:38.737Z,64.28
2023-02-22T10:18:49.651Z,62.67
2023-02-22T10:22:16.322Z,62.40
2023-02-22T10:25:26.181Z,57.95
2023-02-22T10:28:53.173Z,58.30
2023-02-22T10:32:02.949Z,63.95
2023-02-22T10:35:28.508Z,62.08
2023-02-22T10:38:35.224Z,57.55
2023-02-22T10:41:54.737Z,58.05
2023-02-22T10:45:01.095Z,58.50
2023-02-22T10:48:27.055Z,56.67
2023-02-22T10:51:33.116Z,56.75
2023-02-22T10:54:42.689Z,55.42
2023-02-22T10:57:52.039Z,60.50
2023-02-22T11:00:58.257Z,61.75
2023-02-22T11:04:14.964Z,60.60
2023-02-22T11:07:34.261Z,60.00
2023-02-22T11:10:39.832Z,59.65
2023-02-22T11:13:55.396Z,59.67
2023-02-22T11:17:06.886Z,54.08
2023-02-22T11:23:33.248Z,48.63
2023-02-22T11:26:56.584Z,57.13
2023-02-22T11:30:25.677Z,50.95
2023-02-22T11:33:31.868Z,50.85
2023-02-22T11:36:43.082Z,51.97
2023-02-22T11:40:04.216Z,48.50
2023-02-22T11:43:20.740Z,50.88
2023-02-22T11:46:32.877Z,48.20
2023-02-22T11:49:45.982Z,52.03
2023-02-22T11:53:14.915Z,51.15
2023-02-22T11:56:40.604Z,47.53
2023-02-22T12:00:12.585Z,47.97
2023-02-22T12:03:55.332Z,50.28
2023-02-22T12:07:30.413Z,49.80
2023-02-22T12:10:55.543Z,48.28
2023-02-22T12:14:13.262Z,47.55
2023-02-22T12:17:43.583Z,48.58
2023-02-22T12:20:56.855Z,47.35
2023-02-22T12:24:14.621Z,47.38
2023-02-22T12:27:34.424Z,51.72
2023-02-22T12:30:44.516Z,53.67
2023-02-22T12:33:54.485Z,49.33
2023-02-22T12:37:21.809Z,46.55
2023-02-22T12:40:58.590Z,46.85
2023-02-22T12:44:09.690Z,52.08
2023-02-22T12:47:21.911Z,46.70
2023-02-22T12:50:34.699Z,51.40
2023-02-22T12:53:45.392Z,48.97
2023-02-22T12:56:59.931Z,48.53
2023-02-22T13:00:47.422Z,49.53
2023-02-22T13:03:56.111Z,50.50
2023-02-22T13:07:23.210Z,50.50
2023-02-22T13:10:53.162Z,55.10
2023-02-22T13:14:14.975Z,50.20
2023-02-22T13:17:36.208Z,49.67
2023-02-22T13:20:54.122Z,45.78
2023-02-22T13:24:14.011Z,48.40
2023-02-22T13:27:38.937Z,51.30
2023-02-22T13:30:57.615Z,49.10
2023-02-22T13:34:20.556Z,50.65
2023-02-22T13:37:50.932Z,52.00
2023-02-22T13:41:35.484Z,50.40
2023-02-22T13:45:08.159Z,51.45
2023-02-22T13:48:20.303Z,54.40
2023-02-22T13:51:46.791Z,51.50
2023-02-22T13:55:03.099Z,49.88
2023-02-22T13:58:12.014Z,52.67
2023-02-22T14:01:55.225Z,51.03
2023-02-22T14:05:00.688Z,54.40
2023-02-22T14:08:08.312Z,57.95
2023-02-22T14:11:19.200Z,52.53
2023-02-22T14:14:25.056Z,50.28
2023-02-22T14:17:31.030Z,56.72
2023-02-22T14:20:40.437Z,57.45
2023-02-22T14:23:51.908Z,50.72
2023-02-22T14:27:03.704Z,52.63
2023-02-22T14:33:57.627Z,53.97
2023-02-22T14:37:20.064Z,54.42
2023-02-22T14:40:29.449Z,54.53
2023-02-22T14:43:38.453Z,57.03
2023-02-22T14:46:50.356Z,55.63
2023-02-22T14:50:05.676Z,55.88
2023-02-22T14:53:32.582Z,54.03
2023-02-22T14:57:15.056Z,53.50
2023-02-22T15:00:32.666Z,54.35
2023-02-22T15:03:38.290Z,55.22
2023-02-22T15:06:44.568Z,59.05
2023-02-22T15:09:50.197Z,59.70
2023-02-22T15:13:10.850Z,57.25
2023-02-22T15:16:16.468Z,58.50
2023-02-22T15:19:32.127Z,56.70
2023-02-22T15:22:37.824Z,58.50
2023-02-22T15:25:49.548Z,55.20
2023-02-22T15:32:02.470Z,55.83
2023-02-22T15:35:23.724Z,57.63
2023-02-22T15:38:30.531Z,57.40
2023-02-22T15:41:36.388Z,57.05
2023-02-22T15:44:43.780Z,56.55
2023-02-22T15:47:50.202Z,55.45
2023-02-22T15:51:07.451Z,57.80
2023-02-22T15:54:26.570Z,59.00
2023-02-22T15:57:35.853Z,55.78
2023-02-22T16:00:58.113Z,56.55
2023-02-22T16:04:03.957Z,59.65
2023-02-22T16:07:17.395Z,57.55
2023-02-22T16:10:33.840Z,57.60
2023-02-22T16:13:41.654Z,58.50
2023-02-22T16:16:47.008Z,54.03
2023-02-22T16:19:53.438Z,54.97
2023-02-22T16:22:58.794Z,55.15
2023-02-22T16:26:26.804Z,55.65
2023-02-22T16:29:32.411Z,53.90
2023-02-22T16:32:37.414Z,58.92
2023-02-22T16:35:52.119Z,57.70
2023-02-22T16:38:57.538Z,63.08
2023-02-22T16:42:05.470Z,62.25
2023-02-22T16:45:16.717Z,60.33
2023-02-22T16:48:25.475Z,57.50
2023-02-22T16:51:40.904Z,54.25
2023-02-22T16:54:46.634Z,55.10
2023-02-22T16:57:57.044Z,58.40
2023-02-22T17:01:02.562Z,58.70
2023-02-22T17:04:22.389Z,56.70
2023-02-22T17:07:31.248Z,55.60
2023-02-22T17:10:37.048Z,55.72
2023-02-22T17:13:42.296Z,59.70
2023-02-22T17:16:47.820Z,57.50
2023-02-22T17:19:55.267Z,57.80
2023-02-22T17:23:08.428Z,63.78
2023-02-22T17:26:16.093Z,60.53
2023-02-22T17:29:21.821Z,61.45
2023-02-22T17:32:27.223Z,64.75
2023-02-22T17:35:37.280Z,65.95
2023-02-22T17:38:43.360Z,65.75
2023-02-22T17:41:55.402Z,64.40
2023-02-22T17:45:00.674Z,68.35
2023-02-22T17:48:06.143Z,67.07
2023-02-22T17:51:12.706Z,67.60
2023-02-22T17:54:18.099Z,65.57
2023-02-22T17:57:23.472Z,67.50
2023-02-22T18:00:33.529Z,63.95
2023-02-22T18:03:40.624Z,63.92
2023-02-22T18:06:47.023Z,64.15
2023-02-22T18:09:52.539Z,63.35
2023-02-22T18:13:02.290Z,66.90
2023-02-22T18:16:10.280Z,62.42
2023-02-22T18:19:21.023Z,60.28
2023-02-22T18:22:28.300Z,68.07
2023-02-22T18:25:35.865Z,66.25
2023-02-22T18:28:41.559Z,67.32
2023-02-22T18:31:47.217Z,63.38
2023-02-22T18:34:52.576Z,65.93
2023-02-22T18:37:58.050Z,67.57
2023-02-22T18:41:07.152Z,68.68
2023-02-22T18:44:12.775Z,68.13
2023-02-22T18:47:20.155Z,64.70
2023-02-22T18:50:26.409Z,68.90
2023-02-22T18:53:33.292Z,67.53
2023-02-22T18:56:40.539Z,69.28
2023-02-22T18:59:46.204Z,66.75
2023-02-22T19:02:53.989Z,66.35
2023-02-22T19:06:03.898Z,67.50
2023-02-22T19:09:09.209Z,69.55
2023-02-22T19:12:17.300Z,67.35
2023-02-22T19:15:23.768Z,65.68
2023-02-22T19:18:29.116Z,65.22
2023-02-22T19:21:34.594Z,67.72
2023-02-22T19:24:40.152Z,64.40
2023-02-22T19:27:45.620Z,64.47
2023-02-22T19:30:51.055Z,63.75
2023-02-22T19:34:00.808Z,66.38
2023-02-22T19:37:06.754Z,65.30
2023-02-22T19:40:17.224Z,61.97
2023-02-22T19:43:22.626Z,66.63
2023-02-22T19:46:28.925Z,66.53
2023-02-22T19:49:37.226Z,68.70
2023-02-22T19:52:43.009Z,65.95
2023-02-22T19:55:48.743Z,66.53
2023-02-22T19:58:56.358Z,62.15
2023-02-22T20:02:02.121Z,64.13
2023-02-22T20:05:12.553Z,70.10
2023-02-22T20:08:18.413Z,75.15
2023-02-22T20:11:25.637Z,93.45
2023-02-22T20:14:31.196Z,84.18
2023-02-22T20:17:36.343Z,76.18
2023-02-22T20:20:43.162Z,83.07
2023-02-22T20:23:49.017Z,72.97
2023-02-22T20:26:56.854Z,64.57
2023-02-22T20:30:05.685Z,71.65
2023-02-22T20:33:14.642Z,71.55
2023-02-22T20:36:23.292Z,71.60
2023-02-22T20:39:29.258Z,74.50
2023-02-22T20:42:35.612Z,76.43
2023-02-22T20:45:43.272Z,72.97
2023-02-22T20:48:50.133Z,76.20
2023-02-22T20:51:57.018Z,71.65
2023-02-22T20:55:05.483Z,74.75
2023-02-22T20:58:11.060Z,73.63
2023-02-22T21:01:20.786Z,72.47
2023-02-22T21:04:31.478Z,70.53
2023-02-22T21:07:40.368Z,72.07
2023-02-22T21:10:48.819Z,77.75
2023-02-22T21:13:54.914Z,72.50
2023-02-22T21:17:03.801Z,71.95
2023-02-22T21:20:13.097Z,69.00
2023-02-22T21:23:18.807Z,78.30
2023-02-22T21:26:30.469Z,78.20
2023-02-22T21:29:36.196Z,71.47
2023-02-22T21:32:42.190Z,83.70
2023-02-22T21:35:48.164Z,83.95
2023-02-22T21:39:00.212Z,70.35
2023-02-22T21:45:13.299Z,69.50
2023-02-22T21:48:19.768Z,72.75
2023-02-22T21:51:31.773Z,73.20
2023-02-22T21:54:37.450Z,74.05
2023-02-22T21:57:43.038Z,79.20
2023-02-22T22:00:48.930Z,74.10
2023-02-22T22:03:55.051Z,73.75
2023-02-22T22:07:04.236Z,74.65
2023-02-22T22:10:14.925Z,74.25
2023-02-22T22:13:23.554Z,70.63
2023-02-22T22:16:30.205Z,73.35
2023-02-22T22:19:42.039Z,68.35
2023-02-22T22:22:47.433Z,70.57
2023-02-22T22:26:02.618Z,73.80
2023-02-22T22:29:10.810Z,72.47
2023-02-22T22:32:16.487Z,71.47
2023-02-22T22:35:22.952Z,68.78
2023-02-22T22:38:29.740Z,69.82
2023-02-22T22:41:35.086Z,72.53
2023-02-22T22:44:43.528Z,71.88
2023-02-22T22:47:48.992Z,71.28
2023-02-22T22:51:06.867Z,72.38
2023-02-22T22:54:12.762Z,72.25
2023-02-22T22:57:18.281Z,73.60
2023-02-22T23:00:29.822Z,69.10
2023-02-22T23:03:38.347Z,67.43
2023-02-22T23:06:52.627Z,71.55
2023-02-22T23:09:58.224Z,66.47
2023-02-22T23:13:04.272Z,70.30
2023-02-22T23:16:12.392Z,69.53
2023-02-22T23:19:19.527Z,70.35
2023-02-22T23:22:24.879Z,68.85
2023-02-22T23:25:30.658Z,68.18
2023-02-22T23:28:38.788Z,66.60
2023-02-22T23:31:44.580Z,67.57
2023-02-22T23:34:50.125Z,69.35
2023-02-22T23:37:58.554Z,67.40
2023-02-22T23:41:06.328Z,69.03
2023-02-22T23:44:17.943Z,65.30
2023-02-22T23:47:23.497Z,67.55
2023-02-22T23:50:31.306Z,69.20
2023-02-22T23:53:38.746Z,69.82
2023-02-22T23:56:47.503Z,63.15
2023-02-22T23:59:52.779Z,70.22
